AKST,Max TemperatureF,Mean TemperatureF,Min TemperatureF,Max Dew PointF,MeanDew PointF,Min DewpointF,Max Humidity, Mean Humidity, Min Humidity, Max Sea Level PressureIn, Mean Sea Level PressureIn, Min Sea Level PressureIn, Max VisibilityMiles, Mean VisibilityMiles, Min VisibilityMiles, Max Wind SpeedMPH, Mean Wind SpeedMPH, Max Gust SpeedMPH,PrecipitationIn, CloudCover, Events, WindDirDegrees
2011-12-1,37,34,30,37,29,18,100,84,61,29.94,29.81,29.53,10,10,6,29,11,40,0.12,6,Rain,244
2011-12-2,36,32,28,36,33,29,100,97,89,30.20,30.06,29.89,10,9,4,10,5,,0.17,6,Rain,275
2011-12-3,45,38,32,38,34,30,100,84,73,30.18,30.01,29.82,10,10,7,15,4,25,0.26,7,Rain,97
2011-12-4,44,38,32,40,32,19,100,79,59,30.05,29.81,29.58,10,9,4,21,13,29,0.25,5,Rain,229
2011-12-5,36,32,30,23,21,18,72,65,57,30.44,30.27,30.07,10,10,10,23,17,33,0.00,3,,258
2011-12-6,36,30,24,25,22,19,88,74,57,30.46,30.43,30.36,10,10,10,15,7,21,0.00,2,,40
2011-12-7,37,35,33,33,29,24,89,78,62,30.34,29.99,29.81,10,10,10,9,5,20,0.02,8,,90
2011-12-8,35,32,30,34,32,29,100,98,92,29.81,29.79,29.77,10,9,6,7,3,,0.03,6,Rain,47
2011-12-9,35,30,24,36,29,22,100,85,72,30.10,29.94,29.79,10,10,8,18,7,28,0.01,5,Rain,254
2011-12-10,37,28,19,36,27,19,100,91,70,30.10,29.83,29.58,10,8,3,25,7,39,0.29,4,Rain-Snow,87
2011-12-11,37,34,30,36,33,30,100,96,87,29.71,29.02,28.62,10,7,2,30,11,41,1.02,8,Rain-Snow,14
2011-12-12,34,29,21,30,25,18,93,77,61,29.75,29.47,29.02,10,10,10,30,20,40,0.00,3,,258
2011-12-13,27,22,17,22,18,14,100,87,75,29.77,29.71,29.60,10,10,10,10,3,,0.00,1,,46
2011-12-14,30,24,21,30,24,20,100,92,81,29.70,29.58,29.46,10,9,5,15,7,,0.02,6,Snow,53
2011-12-15,36,33,30,34,31,28,100,93,73,29.42,29.21,29.06,10,6,1,18,12,28,0.40,7,Rain-Snow,71
2011-12-16,37,34,32,34,30,24,100,86,57,29.43,29.40,29.37,10,8,1,20,10,30,0.17,6,Rain-Snow,88
2011-12-17,39,34,30,35,33,31,100,91,73,29.52,29.44,29.29,10,10,5,15,6,26,0.15,7,Rain,102
2011-12-18,39,36,33,36,33,26,100,88,70,29.36,28.95,28.69,10,8,2,28,15,40,0.86,8,Rain,163
2011-12-19,34,30,25,31,28,22,100,90,61,29.67,29.51,29.39,10,7,1,32,11,45,0.06,7,Snow,200
2011-12-20,39,34,28,36,30,23,100,83,67,29.78,29.56,29.38,10,8,2,22,14,30,0.30,6,Rain-Snow,139
2011-12-21,35,27,19,30,26,19,100,89,59,29.72,29.66,29.51,10,9,1,22,8,29,0.01,3,Snow,273
2011-12-22,25,23,21,21,17,12,100,76,60,29.54,29.22,29.07,10,10,10,10,5,20,0.00,2,,30
2011-12-23,26,18,10,16,11,8,92,71,55,29.57,29.40,29.15,10,10,10,15,4,24,0.00,2,,19
2011-12-24,18,14,10,13,10,7,92,80,68,29.58,29.44,29.27,10,9,2,9,3,,0.01,6,Snow,29
2011-12-25,18,12,5,16,9,1,93,85,73,29.46,29.35,29.25,10,3,0,25,13,34,0.15,8,Fog-Snow,241
2011-12-26,21,16,12,19,15,8,100,90,74,29.38,29.14,28.98,10,4,0,22,7,31,0.35,8,Fog-Snow,18
2011-12-27,16,13,10,14,8,5,93,85,73,29.26,29.16,28.99,10,4,1,25,16,34,0.04,8,Snow,244
2011-12-28,15,12,8,9,6,3,88,78,68,29.20,29.14,29.10,10,10,9,9,4,,0.00,8,,32
2011-12-29,16,12,8,12,8,3,93,84,73,29.39,29.32,29.16,10,3,1,24,11,33,0.04,8,Snow,229
2011-12-30,12,9,6,12,5,1,100,85,77,29.64,29.42,29.30,6,2,0,24,16,36,0.13,8,Fog-Snow,234
2011-12-31,10,4,-2,6,2,-5,87,76,64,29.93,29.82,29.64,10,8,2,15,10,22,0.01,7,Snow,174